Pagrindinis puslapis
METAR-TAF:

METAR-TAF

Oro uostai :

Hohhot, Kinija

platuma: 40-49N, ilguma: 111-41E, Aukštis: 1065 m

Dabartinis oras

Ataskaita buvo paskelbta 1 valandą ir 3 minutes, ne 17:00 UTC
Vėjas 4 kt iš Šiaurės Rytų
Temperatūra 0°C
Drėgmė 64%
Slėgis 1022 hPa
Matomumas: 7000 m

METAR: ZBHH 201700Z 05002MPS 7000 NSC M00/M06 Q1022 NOSIG

Laikas: 02:03 (18:03 UTC)

Prognozė

Ataskaita buvo paskelbta 3 valandos ir 0 minutes, ne 15:03 UTC
Prognozė galioja nuo 20 metu 18 UTC su 21 metu 18 UTC
Vėjas 8 kt iš Pietvakarių
Matomumas 10 km arba daugiau
Mažai debesys ne aukštis 4000 ft

TAF: ZBHH 201503Z 2018/2118 23004MPS 9999 FEW040 TX14/2107Z TN00/2022Z

Orai ataskaitas ir orų prognozės (METAR, TAF).

turimą stotys yra geltonos ir raudonos taškus žemėlapyje.

Perkelti pele per norėdami pamatyti stoties vardą.

Tada spustelėkite, norėdami matyti oro stebėjimo ir prognozės.

Norėdami pakeisti žemėlapį: spustelėkite ant žalios mygtukų su juodo kryžiaus žemyn,; žalią mygtuką su brūkšneliu, jei norite nutolinti; arba žalių rodyklių gretimoms žemėlapius.


METAR-TAF: